sensor_id;sensor_type;location;lat;lon;timestamp;temperature;humidity
78297;DHT22;67555;47.660;19.622;2023-04-03T00:01:32;7.90;71.50
78297;DHT22;67555;47.660;19.622;2023-04-03T00:03:58;7.90;71.60
78297;DHT22;67555;47.660;19.622;2023-04-03T00:06:24;7.90;71.30
78297;DHT22;67555;47.660;19.622;2023-04-03T00:08:50;7.80;70.60
78297;DHT22;67555;47.660;19.622;2023-04-03T00:11:17;7.80;70.40
78297;DHT22;67555;47.660;19.622;2023-04-03T00:13:43;7.80;70.40
78297;DHT22;67555;47.660;19.622;2023-04-03T00:16:10;7.60;70.60
78297;DHT22;67555;47.660;19.622;2023-04-03T00:18:39;7.60;70.70
78297;DHT22;67555;47.660;19.622;2023-04-03T00:21:06;7.50;70.90
78297;DHT22;67555;47.660;19.622;2023-04-03T00:23:33;7.50;70.90
78297;DHT22;67555;47.660;19.622;2023-04-03T00:25:59;7.50;71.00
78297;DHT22;67555;47.660;19.622;2023-04-03T00:28:25;7.50;71.00
78297;DHT22;67555;47.660;19.622;2023-04-03T00:30:52;7.50;70.70
78297;DHT22;67555;47.660;19.622;2023-04-03T00:33:18;7.40;70.90
78297;DHT22;67555;47.660;19.622;2023-04-03T00:35:47;7.40;71.20
78297;DHT22;67555;47.660;19.622;2023-04-03T00:38:14;7.40;71.60
78297;DHT22;67555;47.660;19.622;2023-04-03T00:40:43;7.40;72.00
78297;DHT22;67555;47.660;19.622;2023-04-03T00:43:22;7.30;72.60
78297;DHT22;67555;47.660;19.622;2023-04-03T00:45:50;7.30;73.00
78297;DHT22;67555;47.660;19.622;2023-04-03T00:48:22;7.30;73.50
78297;DHT22;67555;47.660;19.622;2023-04-03T00:50:52;7.20;73.60
78297;DHT22;67555;47.660;19.622;2023-04-03T00:53:22;7.20;73.70
78297;DHT22;67555;47.660;19.622;2023-04-03T00:55:51;7.20;73.40
78297;DHT22;67555;47.660;19.622;2023-04-03T00:58:20;7.20;73.30
78297;DHT22;67555;47.660;19.622;2023-04-03T01:00:50;7.20;73.10
78297;DHT22;67555;47.660;19.622;2023-04-03T01:03:21;7.20;72.70
78297;DHT22;67555;47.660;19.622;2023-04-03T01:05:47;7.20;72.50
78297;DHT22;67555;47.660;19.622;2023-04-03T01:08:13;7.20;72.10
78297;DHT22;67555;47.660;19.622;2023-04-03T01:10:39;7.20;71.80
78297;DHT22;67555;47.660;19.622;2023-04-03T01:13:23;7.20;71.80
78297;DHT22;67555;47.660;19.622;2023-04-03T01:15:49;7.20;72.10
78297;DHT22;67555;47.660;19.622;2023-04-03T01:18:14;7.20;72.40
78297;DHT22;67555;47.660;19.622;2023-04-03T01:23:53;7.10;72.80
78297;DHT22;67555;47.660;19.622;2023-04-03T01:26:21;7.00;73.00
78297;DHT22;67555;47.660;19.622;2023-04-03T01:28:47;7.00;73.20
78297;DHT22;67555;47.660;19.622;2023-04-03T01:31:25;7.00;73.30
78297;DHT22;67555;47.660;19.622;2023-04-03T01:33:52;7.10;73.30
78297;DHT22;67555;47.660;19.622;2023-04-03T01:36:25;7.10;73.30
78297;DHT22;67555;47.660;19.622;2023-04-03T01:38:53;7.20;73.30
78297;DHT22;67555;47.660;19.622;2023-04-03T01:41:19;7.20;73.20
78297;DHT22;67555;47.660;19.622;2023-04-03T01:43:47;7.20;73.00
78297;DHT22;67555;47.660;19.622;2023-04-03T01:46:14;7.10;72.50
78297;DHT22;67555;47.660;19.622;2023-04-03T01:48:40;7.00;72.10
78297;DHT22;67555;47.660;19.622;2023-04-03T01:51:06;7.00;72.20
78297;DHT22;67555;47.660;19.622;2023-04-03T01:53:32;7.00;72.10
78297;DHT22;67555;47.660;19.622;2023-04-03T01:55:57;6.90;72.20
78297;DHT22;67555;47.660;19.622;2023-04-03T01:58:24;6.90;72.30
78297;DHT22;67555;47.660;19.622;2023-04-03T02:00:51;6.90;72.20
78297;DHT22;67555;47.660;19.622;2023-04-03T02:03:17;6.90;72.20
78297;DHT22;67555;47.660;19.622;2023-04-03T02:05:43;6.90;71.70
78297;DHT22;67555;47.660;19.622;2023-04-03T02:08:08;6.90;71.50
78297;DHT22;67555;47.660;19.622;2023-04-03T02:10:34;6.90;71.30
78297;DHT22;67555;47.660;19.622;2023-04-03T02:13:00;6.90;71.00
78297;DHT22;67555;47.660;19.622;2023-04-03T02:15:26;6.90;70.70
78297;DHT22;67555;47.660;19.622;2023-04-03T02:17:52;6.90;70.70
78297;DHT22;67555;47.660;19.622;2023-04-03T02:20:18;7.00;70.60
78297;DHT22;67555;47.660;19.622;2023-04-03T02:22:44;7.00;70.50
78297;DHT22;67555;47.660;19.622;2023-04-03T02:25:10;7.00;70.50
78297;DHT22;67555;47.660;19.622;2023-04-03T02:27:36;7.00;70.70
78297;DHT22;67555;47.660;19.622;2023-04-03T02:30:03;7.10;70.70
78297;DHT22;67555;47.660;19.622;2023-04-03T02:32:29;7.20;70.70
78297;DHT22;67555;47.660;19.622;2023-04-03T02:34:55;7.30;70.90
78297;DHT22;67555;47.660;19.622;2023-04-03T02:37:20;7.20;71.50
78297;DHT22;67555;47.660;19.622;2023-04-03T02:39:46;7.20;72.00
78297;DHT22;67555;47.660;19.622;2023-04-03T02:42:12;7.20;72.50
78297;DHT22;67555;47.660;19.622;2023-04-03T02:44:38;7.10;73.00
78297;DHT22;67555;47.660;19.622;2023-04-03T02:47:04;7.00;73.40
78297;DHT22;67555;47.660;19.622;2023-04-03T02:49:30;7.00;74.00
78297;DHT22;67555;47.660;19.622;2023-04-03T02:51:56;7.00;74.20
78297;DHT22;67555;47.660;19.622;2023-04-03T02:54:22;6.90;74.40
78297;DHT22;67555;47.660;19.622;2023-04-03T02:56:49;6.90;74.40
78297;DHT22;67555;47.660;19.622;2023-04-03T02:59:16;6.90;74.30
78297;DHT22;67555;47.660;19.622;2023-04-03T03:01:42;6.90;74.10
78297;DHT22;67555;47.660;19.622;2023-04-03T03:04:07;6.90;73.70
78297;DHT22;67555;47.660;19.622;2023-04-03T03:06:34;6.90;73.30
78297;DHT22;67555;47.660;19.622;2023-04-03T03:09:02;6.90;72.90
78297;DHT22;67555;47.660;19.622;2023-04-03T03:11:29;7.00;72.80
78297;DHT22;67555;47.660;19.622;2023-04-03T03:13:56;6.90;72.70
78297;DHT22;67555;47.660;19.622;2023-04-03T03:16:22;6.90;72.90
78297;DHT22;67555;47.660;19.622;2023-04-03T03:18:47;6.90;73.20
78297;DHT22;67555;47.660;19.622;2023-04-03T03:21:13;6.80;73.50
78297;DHT22;67555;47.660;19.622;2023-04-03T03:23:40;6.80;73.80
78297;DHT22;67555;47.660;19.622;2023-04-03T03:26:08;6.70;74.00
78297;DHT22;67555;47.660;19.622;2023-04-03T03:28:35;6.70;74.00
78297;DHT22;67555;47.660;19.622;2023-04-03T03:31:02;6.60;74.20
78297;DHT22;67555;47.660;19.622;2023-04-03T03:33:28;6.50;74.40
78297;DHT22;67555;47.660;19.622;2023-04-03T03:35:54;6.50;74.40
78297;DHT22;67555;47.660;19.622;2023-04-03T03:38:20;6.50;74.40
78297;DHT22;67555;47.660;19.622;2023-04-03T03:40:47;6.50;74.40
78297;DHT22;67555;47.660;19.622;2023-04-03T03:43:15;6.50;74.30
78297;DHT22;67555;47.660;19.622;2023-04-03T03:45:41;6.50;74.30
78297;DHT22;67555;47.660;19.622;2023-04-03T03:48:07;6.60;74.30
78297;DHT22;67555;47.660;19.622;2023-04-03T03:50:33;6.50;74.20
78297;DHT22;67555;47.660;19.622;2023-04-03T03:52:59;6.50;74.30
78297;DHT22;67555;47.660;19.622;2023-04-03T03:55:24;6.40;74.30
78297;DHT22;67555;47.660;19.622;2023-04-03T03:57:50;6.50;74.30
78297;DHT22;67555;47.660;19.622;2023-04-03T04:00:16;6.40;74.30
78297;DHT22;67555;47.660;19.622;2023-04-03T04:02:42;6.40;74.40
78297;DHT22;67555;47.660;19.622;2023-04-03T04:05:08;6.30;74.60
78297;DHT22;67555;47.660;19.622;2023-04-03T04:07:34;6.20;74.90
78297;DHT22;67555;47.660;19.622;2023-04-03T04:10:00;6.10;75.00
78297;DHT22;67555;47.660;19.622;2023-04-03T04:12:26;6.00;75.20
78297;DHT22;67555;47.660;19.622;2023-04-03T04:14:52;5.90;75.30
78297;DHT22;67555;47.660;19.622;2023-04-03T04:17:18;5.90;75.30
78297;DHT22;67555;47.660;19.622;2023-04-03T04:19:45;5.80;75.30
78297;DHT22;67555;47.660;19.622;2023-04-03T04:22:10;5.90;75.30
78297;DHT22;67555;47.660;19.622;2023-04-03T04:24:37;5.90;75.10
78297;DHT22;67555;47.660;19.622;2023-04-03T04:27:03;5.80;75.00
78297;DHT22;67555;47.660;19.622;2023-04-03T04:29:28;5.80;75.00
78297;DHT22;67555;47.660;19.622;2023-04-03T04:31:54;5.70;75.00
78297;DHT22;67555;47.660;19.622;2023-04-03T04:34:20;5.70;74.90
78297;DHT22;67555;47.660;19.622;2023-04-03T04:36:45;5.60;74.70
78297;DHT22;67555;47.660;19.622;2023-04-03T04:39:11;5.50;74.80
78297;DHT22;67555;47.660;19.622;2023-04-03T04:41:37;5.50;74.80
78297;DHT22;67555;47.660;19.622;2023-04-03T04:44:03;5.40;74.80
78297;DHT22;67555;47.660;19.622;2023-04-03T04:46:28;5.30;74.90
78297;DHT22;67555;47.660;19.622;2023-04-03T04:48:57;5.30;74.90
78297;DHT22;67555;47.660;19.622;2023-04-03T04:51:23;5.20;75.00
78297;DHT22;67555;47.660;19.622;2023-04-03T04:53:48;5.10;75.10
78297;DHT22;67555;47.660;19.622;2023-04-03T04:56:14;5.00;75.20
78297;DHT22;67555;47.660;19.622;2023-04-03T04:58:40;5.00;75.20
78297;DHT22;67555;47.660;19.622;2023-04-03T05:01:08;5.00;75.10
78297;DHT22;67555;47.660;19.622;2023-04-03T05:03:34;5.10;75.00
78297;DHT22;67555;47.660;19.622;2023-04-03T05:06:01;5.10;75.00
78297;DHT22;67555;47.660;19.622;2023-04-03T05:08:27;5.20;74.80
78297;DHT22;67555;47.660;19.622;2023-04-03T05:10:53;5.30;74.70
78297;DHT22;67555;47.660;19.622;2023-04-03T05:13:19;5.50;74.40
78297;DHT22;67555;47.660;19.622;2023-04-03T05:15:45;5.60;74.10
78297;DHT22;67555;47.660;19.622;2023-04-03T05:18:11;5.70;73.60
78297;DHT22;67555;47.660;19.622;2023-04-03T05:20:37;5.80;73.30
78297;DHT22;67555;47.660;19.622;2023-04-03T05:23:03;5.90;73.10
78297;DHT22;67555;47.660;19.622;2023-04-03T05:25:29;5.90;72.60
78297;DHT22;67555;47.660;19.622;2023-04-03T05:27:56;5.90;72.60
78297;DHT22;67555;47.660;19.622;2023-04-03T05:30:22;5.90;72.40
78297;DHT22;67555;47.660;19.622;2023-04-03T05:32:48;6.00;72.20
78297;DHT22;67555;47.660;19.622;2023-04-03T05:35:13;6.10;72.00
78297;DHT22;67555;47.660;19.622;2023-04-03T05:37:40;6.10;71.80
78297;DHT22;67555;47.660;19.622;2023-04-03T05:40:06;6.20;71.40
78297;DHT22;67555;47.660;19.622;2023-04-03T05:42:33;6.20;71.30
78297;DHT22;67555;47.660;19.622;2023-04-03T05:44:58;6.30;71.30
78297;DHT22;67555;47.660;19.622;2023-04-03T05:47:24;6.40;71.20
78297;DHT22;67555;47.660;19.622;2023-04-03T05:49:50;6.50;71.10
78297;DHT22;67555;47.660;19.622;2023-04-03T05:52:36;6.50;71.10
78297;DHT22;67555;47.660;19.622;2023-04-03T05:55:03;6.60;70.90
78297;DHT22;67555;47.660;19.622;2023-04-03T05:57:29;6.60;70.50
78297;DHT22;67555;47.660;19.622;2023-04-03T05:59:55;6.60;70.60
78297;DHT22;67555;47.660;19.622;2023-04-03T06:02:23;6.60;70.60
78297;DHT22;67555;47.660;19.622;2023-04-03T06:04:48;6.70;70.40
78297;DHT22;67555;47.660;19.622;2023-04-03T06:07:21;6.80;70.40
78297;DHT22;67555;47.660;19.622;2023-04-03T06:09:48;6.80;70.10
78297;DHT22;67555;47.660;19.622;2023-04-03T06:12:15;6.80;69.90
78297;DHT22;67555;47.660;19.622;2023-04-03T06:14:41;6.80;70.00
78297;DHT22;67555;47.660;19.622;2023-04-03T06:17:07;6.90;70.20
78297;DHT22;67555;47.660;19.622;2023-04-03T06:19:34;7.00;70.00
78297;DHT22;67555;47.660;19.622;2023-04-03T06:22:00;7.00;69.80
78297;DHT22;67555;47.660;19.622;2023-04-03T06:24:26;7.10;69.50
78297;DHT22;67555;47.660;19.622;2023-04-03T06:26:52;7.10;69.20
78297;DHT22;67555;47.660;19.622;2023-04-03T06:29:19;7.10;68.80
78297;DHT22;67555;47.660;19.622;2023-04-03T06:31:45;7.20;68.80
78297;DHT22;67555;47.660;19.622;2023-04-03T06:34:12;7.20;68.40
78297;DHT22;67555;47.660;19.622;2023-04-03T06:36:38;7.20;68.10
78297;DHT22;67555;47.660;19.622;2023-04-03T06:39:05;7.20;68.00
78297;DHT22;67555;47.660;19.622;2023-04-03T06:41:32;7.40;67.80
78297;DHT22;67555;47.660;19.622;2023-04-03T06:43:58;7.50;67.60
78297;DHT22;67555;47.660;19.622;2023-04-03T06:46:26;7.50;67.20
78297;DHT22;67555;47.660;19.622;2023-04-03T06:48:52;7.60;67.00
78297;DHT22;67555;47.660;19.622;2023-04-03T06:51:24;7.70;66.30
78297;DHT22;67555;47.660;19.622;2023-04-03T06:53:52;7.80;66.30
78297;DHT22;67555;47.660;19.622;2023-04-03T06:56:18;7.80;65.90
78297;DHT22;67555;47.660;19.622;2023-04-03T06:58:45;8.00;66.10
78297;DHT22;67555;47.660;19.622;2023-04-03T07:01:13;8.10;65.00
78297;DHT22;67555;47.660;19.622;2023-04-03T07:03:39;8.20;64.40
78297;DHT22;67555;47.660;19.622;2023-04-03T07:06:09;8.20;64.20
78297;DHT22;67555;47.660;19.622;2023-04-03T07:08:36;8.20;64.10
78297;DHT22;67555;47.660;19.622;2023-04-03T07:11:02;8.30;64.20
78297;DHT22;67555;47.660;19.622;2023-04-03T07:13:28;8.50;64.30
78297;DHT22;67555;47.660;19.622;2023-04-03T07:15:54;8.70;63.50
78297;DHT22;67555;47.660;19.622;2023-04-03T07:18:20;8.90;63.00
78297;DHT22;67555;47.660;19.622;2023-04-03T07:20:47;9.00;62.10
78297;DHT22;67555;47.660;19.622;2023-04-03T07:23:13;9.20;61.60
78297;DHT22;67555;47.660;19.622;2023-04-03T07:25:47;9.40;61.00
78297;DHT22;67555;47.660;19.622;2023-04-03T07:28:14;9.40;60.20
78297;DHT22;67555;47.660;19.622;2023-04-03T07:30:48;9.60;60.00
78297;DHT22;67555;47.660;19.622;2023-04-03T07:33:17;10.00;59.60
78297;DHT22;67555;47.660;19.622;2023-04-03T07:35:42;10.30;59.00
78297;DHT22;67555;47.660;19.622;2023-04-03T07:38:09;10.60;58.40
78297;DHT22;67555;47.660;19.622;2023-04-03T07:40:36;10.90;58.00
78297;DHT22;67555;47.660;19.622;2023-04-03T07:43:02;11.00;55.90
78297;DHT22;67555;47.660;19.622;2023-04-03T07:45:28;10.80;55.50
78297;DHT22;67555;47.660;19.622;2023-04-03T07:47:54;10.80;56.00
78297;DHT22;67555;47.660;19.622;2023-04-03T07:50:20;10.90;56.00
78297;DHT22;67555;47.660;19.622;2023-04-03T07:52:47;10.90;55.80
78297;DHT22;67555;47.660;19.622;2023-04-03T07:55:13;10.80;55.50
78297;DHT22;67555;47.660;19.622;2023-04-03T07:57:40;10.80;55.70
78297;DHT22;67555;47.660;19.622;2023-04-03T08:00:07;10.80;55.60
78297;DHT22;67555;47.660;19.622;2023-04-03T08:02:34;10.80;54.90
78297;DHT22;67555;47.660;19.622;2023-04-03T08:05:00;10.70;55.00
78297;DHT22;67555;47.660;19.622;2023-04-03T08:07:28;10.70;55.00
78297;DHT22;67555;47.660;19.622;2023-04-03T08:09:55;10.50;54.40
78297;DHT22;67555;47.660;19.622;2023-04-03T08:12:21;10.30;53.70
78297;DHT22;67555;47.660;19.622;2023-04-03T08:14:47;10.30;54.30
78297;DHT22;67555;47.660;19.622;2023-04-03T08:17:12;10.20;54.20
78297;DHT22;67555;47.660;19.622;2023-04-03T08:19:39;10.30;53.00
78297;DHT22;67555;47.660;19.622;2023-04-03T08:22:05;10.30;52.80
78297;DHT22;67555;47.660;19.622;2023-04-03T08:24:32;10.30;52.00
78297;DHT22;67555;47.660;19.622;2023-04-03T08:26:58;10.20;51.50
78297;DHT22;67555;47.660;19.622;2023-04-03T08:29:25;10.10;50.60
78297;DHT22;67555;47.660;19.622;2023-04-03T08:31:51;10.00;51.50
78297;DHT22;67555;47.660;19.622;2023-04-03T08:34:18;10.10;51.60
78297;DHT22;67555;47.660;19.622;2023-04-03T08:36:44;10.10;50.90
78297;DHT22;67555;47.660;19.622;2023-04-03T08:39:11;10.00;51.00
78297;DHT22;67555;47.660;19.622;2023-04-03T08:41:44;10.00;50.80
78297;DHT22;67555;47.660;19.622;2023-04-03T08:49:49;10.20;50.30
78297;DHT22;67555;47.660;19.622;2023-04-03T08:55:45;10.40;48.70
78297;DHT22;67555;47.660;19.622;2023-04-03T08:57:59;10.40;48.00
78297;DHT22;67555;47.660;19.622;2023-04-03T09:00:28;10.50;48.80
78297;DHT22;67555;47.660;19.622;2023-04-03T09:02:56;10.60;49.40
78297;DHT22;67555;47.660;19.622;2023-04-03T09:10:40;10.60;48.00
78297;DHT22;67555;47.660;19.622;2023-04-03T09:13:13;10.80;48.40
78297;DHT22;67555;47.660;19.622;2023-04-03T09:15:44;11.10;48.60
78297;DHT22;67555;47.660;19.622;2023-04-03T09:23:40;11.70;45.80
78297;DHT22;67555;47.660;19.622;2023-04-03T09:26:24;11.50;45.70
78297;DHT22;67555;47.660;19.622;2023-04-03T09:28:53;11.50;46.00
78297;DHT22;67555;47.660;19.622;2023-04-03T09:31:25;11.60;46.00
78297;DHT22;67555;47.660;19.622;2023-04-03T09:33:57;11.70;45.80
78297;DHT22;67555;47.660;19.622;2023-04-03T09:36:47;11.70;45.50
78297;DHT22;67555;47.660;19.622;2023-04-03T09:39:25;11.80;45.40
78297;DHT22;67555;47.660;19.622;2023-04-03T09:42:03;11.70;45.10
78297;DHT22;67555;47.660;19.622;2023-04-03T09:44:34;11.70;44.30
78297;DHT22;67555;47.660;19.622;2023-04-03T09:47:19;11.60;44.10
78297;DHT22;67555;47.660;19.622;2023-04-03T09:49:45;11.70;44.30
78297;DHT22;67555;47.660;19.622;2023-04-03T09:52:25;11.90;43.90
78297;DHT22;67555;47.660;19.622;2023-04-03T09:54:50;12.00;43.80
78297;DHT22;67555;47.660;19.622;2023-04-03T09:57:16;12.00;43.60
78297;DHT22;67555;47.660;19.622;2023-04-03T09:59:56;12.30;43.50
78297;DHT22;67555;47.660;19.622;2023-04-03T10:02:28;12.50;43.00
78297;DHT22;67555;47.660;19.622;2023-04-03T10:04:55;12.50;42.60
78297;DHT22;67555;47.660;19.622;2023-04-03T10:07:35;12.50;42.60
78297;DHT22;67555;47.660;19.622;2023-04-03T10:12:40;12.50;42.90
78297;DHT22;67555;47.660;19.622;2023-04-03T10:15:14;12.80;42.40
78297;DHT22;67555;47.660;19.622;2023-04-03T10:17:49;13.10;42.20
78297;DHT22;67555;47.660;19.622;2023-04-03T10:20:31;13.30;41.90
78297;DHT22;67555;47.660;19.622;2023-04-03T10:25:40;13.00;41.10
78297;DHT22;67555;47.660;19.622;2023-04-03T10:28:35;12.90;40.40
78297;DHT22;67555;47.660;19.622;2023-04-03T10:31:33;12.70;40.50
78297;DHT22;67555;47.660;19.622;2023-04-03T10:34:33;12.80;40.80
78297;DHT22;67555;47.660;19.622;2023-04-03T10:40:09;12.90;40.80
78297;DHT22;67555;47.660;19.622;2023-04-03T10:42:56;12.80;40.20
78297;DHT22;67555;47.660;19.622;2023-04-03T10:50:56;12.90;40.30
78297;DHT22;67555;47.660;19.622;2023-04-03T10:53:31;13.00;40.50
78297;DHT22;67555;47.660;19.622;2023-04-03T10:58:56;12.90;40.50
78297;DHT22;67555;47.660;19.622;2023-04-03T11:01:31;12.70;40.10
78297;DHT22;67555;47.660;19.622;2023-04-03T11:03:59;12.50;40.80
78297;DHT22;67555;47.660;19.622;2023-04-03T11:06:35;12.50;41.00
78297;DHT22;67555;47.660;19.622;2023-04-03T11:09:05;12.30;41.90
78297;DHT22;67555;47.660;19.622;2023-04-03T11:11:34;12.10;43.30
78297;DHT22;67555;47.660;19.622;2023-04-03T11:16:34;11.70;44.50
78297;DHT22;67555;47.660;19.622;2023-04-03T11:19:16;11.70;45.00
78297;DHT22;67555;47.660;19.622;2023-04-03T11:22:13;11.50;45.80
78297;DHT22;67555;47.660;19.622;2023-04-03T11:24:50;11.30;45.80
78297;DHT22;67555;47.660;19.622;2023-04-03T11:27:21;11.20;45.70
78297;DHT22;67555;47.660;19.622;2023-04-03T11:29:50;11.10;46.10
78297;DHT22;67555;47.660;19.622;2023-04-03T11:32:29;11.10;45.50
78297;DHT22;67555;47.660;19.622;2023-04-03T11:35:01;11.10;44.60
78297;DHT22;67555;47.660;19.622;2023-04-03T11:37:40;11.10;44.70
78297;DHT22;67555;47.660;19.622;2023-04-03T11:42:46;11.30;44.00
78297;DHT22;67555;47.660;19.622;2023-04-03T11:47:50;11.50;43.90
78297;DHT22;67555;47.660;19.622;2023-04-03T11:50:45;11.50;44.50
78297;DHT22;67555;47.660;19.622;2023-04-03T11:58:24;12.10;42.00
78297;DHT22;67555;47.660;19.622;2023-04-03T12:01:02;12.10;41.50
78297;DHT22;67555;47.660;19.622;2023-04-03T12:03:34;12.20;41.70
78297;DHT22;67555;47.660;19.622;2023-04-03T12:08:47;12.30;41.20
78297;DHT22;67555;47.660;19.622;2023-04-03T12:11:24;12.30;41.20
78297;DHT22;67555;47.660;19.622;2023-04-03T12:21:16;12.80;41.40
78297;DHT22;67555;47.660;19.622;2023-04-03T12:32:09;13.40;40.60
78297;DHT22;67555;47.660;19.622;2023-04-03T12:42:58;13.50;40.00
78297;DHT22;67555;47.660;19.622;2023-04-03T12:45:27;13.50;40.00
78297;DHT22;67555;47.660;19.622;2023-04-03T12:47:55;13.30;39.70
78297;DHT22;67555;47.660;19.622;2023-04-03T12:50:24;13.20;39.20
78297;DHT22;67555;47.660;19.622;2023-04-03T12:53:04;13.10;39.20
78297;DHT22;67555;47.660;19.622;2023-04-03T12:55:32;13.20;39.40
78297;DHT22;67555;47.660;19.622;2023-04-03T12:58:34;13.10;38.90
78297;DHT22;67555;47.660;19.622;2023-04-03T13:01:04;13.10;37.30
78297;DHT22;67555;47.660;19.622;2023-04-03T13:03:42;12.90;37.40
78297;DHT22;67555;47.660;19.622;2023-04-03T13:06:23;12.90;37.60
78297;DHT22;67555;47.660;19.622;2023-04-03T13:09:00;12.90;37.50
78297;DHT22;67555;47.660;19.622;2023-04-03T13:11:39;12.90;38.10
78297;DHT22;67555;47.660;19.622;2023-04-03T13:14:19;12.90;38.00
78297;DHT22;67555;47.660;19.622;2023-04-03T13:16:57;12.90;37.80
78297;DHT22;67555;47.660;19.622;2023-04-03T13:19:25;12.90;37.80
78297;DHT22;67555;47.660;19.622;2023-04-03T13:21:59;13.10;38.30
78297;DHT22;67555;47.660;19.622;2023-04-03T13:24:30;13.10;38.70
78297;DHT22;67555;47.660;19.622;2023-04-03T13:26:59;13.20;38.50
78297;DHT22;67555;47.660;19.622;2023-04-03T13:29:35;13.20;37.80
78297;DHT22;67555;47.660;19.622;2023-04-03T13:32:04;13.30;37.70
78297;DHT22;67555;47.660;19.622;2023-04-03T13:34:42;13.30;37.50
78297;DHT22;67555;47.660;19.622;2023-04-03T13:37:25;13.30;36.80
78297;DHT22;67555;47.660;19.622;2023-04-03T13:40:17;13.10;36.90
78297;DHT22;67555;47.660;19.622;2023-04-03T13:42:42;12.90;37.60
78297;DHT22;67555;47.660;19.622;2023-04-03T13:47:39;12.60;38.70
78297;DHT22;67555;47.660;19.622;2023-04-03T13:52:53;12.70;38.20
78297;DHT22;67555;47.660;19.622;2023-04-03T13:55:27;12.80;37.50
78297;DHT22;67555;47.660;19.622;2023-04-03T13:58:03;12.90;38.00
78297;DHT22;67555;47.660;19.622;2023-04-03T14:06:11;12.80;37.70
78297;DHT22;67555;47.660;19.622;2023-04-03T14:08:37;12.60;37.40
78297;DHT22;67555;47.660;19.622;2023-04-03T14:11:03;12.50;38.20
78297;DHT22;67555;47.660;19.622;2023-04-03T14:13:31;12.30;38.70
78297;DHT22;67555;47.660;19.622;2023-04-03T14:15:57;12.20;38.70
78297;DHT22;67555;47.660;19.622;2023-04-03T14:18:23;12.20;39.20
78297;DHT22;67555;47.660;19.622;2023-04-03T14:20:49;12.20;38.70
78297;DHT22;67555;47.660;19.622;2023-04-03T14:23:15;12.10;38.60
78297;DHT22;67555;47.660;19.622;2023-04-03T14:25:42;12.10;39.00
78297;DHT22;67555;47.660;19.622;2023-04-03T14:28:27;12.10;38.70
78297;DHT22;67555;47.660;19.622;2023-04-03T14:30:53;12.00;38.80
78297;DHT22;67555;47.660;19.622;2023-04-03T14:33:21;12.00;39.50
78297;DHT22;67555;47.660;19.622;2023-04-03T14:35:48;12.00;39.20
78297;DHT22;67555;47.660;19.622;2023-04-03T14:38:29;11.90;38.80
78297;DHT22;67555;47.660;19.622;2023-04-03T14:40:58;11.80;38.80
78297;DHT22;67555;47.660;19.622;2023-04-03T14:43:23;11.70;39.40
78297;DHT22;67555;47.660;19.622;2023-04-03T14:45:50;11.50;40.00
78297;DHT22;67555;47.660;19.622;2023-04-03T14:48:22;11.30;40.30
78297;DHT22;67555;47.660;19.622;2023-04-03T14:50:50;11.10;40.10
78297;DHT22;67555;47.660;19.622;2023-04-03T14:53:17;10.90;40.60
78297;DHT22;67555;47.660;19.622;2023-04-03T14:55:47;10.80;40.90
78297;DHT22;67555;47.660;19.622;2023-04-03T14:58:15;10.80;41.20
78297;DHT22;67555;47.660;19.622;2023-04-03T15:00:41;10.70;41.50
78297;DHT22;67555;47.660;19.622;2023-04-03T15:03:13;10.70;41.90
78297;DHT22;67555;47.660;19.622;2023-04-03T15:05:40;10.70;42.00
78297;DHT22;67555;47.660;19.622;2023-04-03T15:08:26;10.60;41.90
78297;DHT22;67555;47.660;19.622;2023-04-03T15:10:52;10.50;42.00
78297;DHT22;67555;47.660;19.622;2023-04-03T15:13:19;10.50;42.30
78297;DHT22;67555;47.660;19.622;2023-04-03T15:15:46;10.50;42.50
78297;DHT22;67555;47.660;19.622;2023-04-03T15:18:23;10.40;42.50
78297;DHT22;67555;47.660;19.622;2023-04-03T15:20:53;10.40;42.40
78297;DHT22;67555;47.660;19.622;2023-04-03T15:23:19;10.30;42.30
78297;DHT22;67555;47.660;19.622;2023-04-03T15:25:46;10.20;42.50
78297;DHT22;67555;47.660;19.622;2023-04-03T15:28:40;10.20;42.60
78297;DHT22;67555;47.660;19.622;2023-04-03T15:31:07;10.10;42.20
78297;DHT22;67555;47.660;19.622;2023-04-03T15:33:34;10.00;42.10
78297;DHT22;67555;47.660;19.622;2023-04-03T15:36:00;10.00;42.20
78297;DHT22;67555;47.660;19.622;2023-04-03T15:38:26;10.00;42.30
78297;DHT22;67555;47.660;19.622;2023-04-03T15:40:53;10.00;42.50
78297;DHT22;67555;47.660;19.622;2023-04-03T15:43:19;10.00;42.80
78297;DHT22;67555;47.660;19.622;2023-04-03T15:45:45;10.00;43.00
78297;DHT22;67555;47.660;19.622;2023-04-03T15:48:11;10.00;42.80
78297;DHT22;67555;47.660;19.622;2023-04-03T15:50:38;10.00;42.80
78297;DHT22;67555;47.660;19.622;2023-04-03T15:53:04;10.10;42.60
78297;DHT22;67555;47.660;19.622;2023-04-03T15:55:32;10.10;42.60
78297;DHT22;67555;47.660;19.622;2023-04-03T15:57:59;10.00;42.70
78297;DHT22;67555;47.660;19.622;2023-04-03T16:00:25;10.00;42.70
78297;DHT22;67555;47.660;19.622;2023-04-03T16:03:01;9.80;42.80
78297;DHT22;67555;47.660;19.622;2023-04-03T16:05:29;9.80;42.80
78297;DHT22;67555;47.660;19.622;2023-04-03T16:07:57;9.70;42.80
78297;DHT22;67555;47.660;19.622;2023-04-03T16:10:24;9.70;42.90
78297;DHT22;67555;47.660;19.622;2023-04-03T16:12:50;9.60;43.00
78297;DHT22;67555;47.660;19.622;2023-04-03T16:15:17;9.60;43.00
78297;DHT22;67555;47.660;19.622;2023-04-03T16:17:43;9.50;43.20
78297;DHT22;67555;47.660;19.622;2023-04-03T16:20:10;9.50;43.30
78297;DHT22;67555;47.660;19.622;2023-04-03T16:22:37;9.50;43.30
78297;DHT22;67555;47.660;19.622;2023-04-03T16:25:04;9.50;43.40
78297;DHT22;67555;47.660;19.622;2023-04-03T16:27:30;9.50;43.40
78297;DHT22;67555;47.660;19.622;2023-04-03T16:29:57;9.50;43.40
78297;DHT22;67555;47.660;19.622;2023-04-03T16:32:25;9.50;43.50
78297;DHT22;67555;47.660;19.622;2023-04-03T16:34:52;9.50;43.60
78297;DHT22;67555;47.660;19.622;2023-04-03T16:37:18;9.50;43.60
78297;DHT22;67555;47.660;19.622;2023-04-03T16:39:44;9.60;43.60
78297;DHT22;67555;47.660;19.622;2023-04-03T16:42:09;9.50;43.70
78297;DHT22;67555;47.660;19.622;2023-04-03T16:44:36;9.40;43.60
78297;DHT22;67555;47.660;19.622;2023-04-03T16:47:02;9.20;43.40
78297;DHT22;67555;47.660;19.622;2023-04-03T16:49:28;9.10;43.40
78297;DHT22;67555;47.660;19.622;2023-04-03T16:51:58;9.00;43.50
78297;DHT22;67555;47.660;19.622;2023-04-03T16:54:24;8.90;43.50
78297;DHT22;67555;47.660;19.622;2023-04-03T16:56:50;8.90;43.70
78297;DHT22;67555;47.660;19.622;2023-04-03T16:59:16;8.80;43.90
78297;DHT22;67555;47.660;19.622;2023-04-03T17:01:42;8.90;43.80
78297;DHT22;67555;47.660;19.622;2023-04-03T17:04:08;8.80;43.80
78297;DHT22;67555;47.660;19.622;2023-04-03T17:06:34;8.80;43.90